createdAt,value
2022-07-27T00:00:00.944Z,61.69
2022-07-27T00:01:00.935Z,61.88
2022-07-27T00:02:00.934Z,62.19
2022-07-27T00:03:00.907Z,62.08
2022-07-27T00:04:00.900Z,62.02
2022-07-27T00:05:00.886Z,62.22
2022-07-27T00:06:00.873Z,62.32
2022-07-27T00:07:00.859Z,62.52
2022-07-27T00:08:00.846Z,62.52
2022-07-27T00:09:00.889Z,62.92
2022-07-27T00:10:00.830Z,63.15
2022-07-27T00:11:00.822Z,63.45
2022-07-27T00:12:00.812Z,63.56
2022-07-27T00:13:00.793Z,63.76
2022-07-27T00:14:00.789Z,63.76
2022-07-27T00:15:00.770Z,63.85
2022-07-27T00:16:00.764Z,63.76
2022-07-27T00:17:00.751Z,63.35
2022-07-27T00:18:00.742Z,63.45
2022-07-27T00:19:00.737Z,63.45
2022-07-27T00:20:00.744Z,63.35
2022-07-27T00:21:00.706Z,63.32
2022-07-27T00:22:00.712Z,63.22
2022-07-27T00:23:00.686Z,63.02
2022-07-27T00:24:00.681Z,63.25
2022-07-27T00:25:00.684Z,63.05
2022-07-27T00:26:00.661Z,62.95
2022-07-27T00:27:00.641Z,62.72
2022-07-27T00:28:00.647Z,63.02
2022-07-27T00:29:00.620Z,62.72
2022-07-27T00:30:00.623Z,62.72
2022-07-27T00:31:00.609Z,62.72
2022-07-27T00:32:00.588Z,62.72
2022-07-27T00:33:00.578Z,62.29
2022-07-27T00:34:00.568Z,62.08
2022-07-27T00:35:00.553Z,61.99
2022-07-27T00:36:00.551Z,61.76
2022-07-27T00:37:00.547Z,61.46
2022-07-27T00:38:00.529Z,61.86
2022-07-27T00:39:00.527Z,62.13
2022-07-27T00:40:00.504Z,61.43
2022-07-27T00:41:00.493Z,61
2022-07-27T00:42:00.481Z,61.02
2022-07-27T00:43:00.484Z,61.63
2022-07-27T00:44:00.456Z,61.63
2022-07-27T00:45:00.450Z,61.72
2022-07-27T00:46:00.434Z,61.6
2022-07-27T00:47:00.424Z,61.6
2022-07-27T00:48:00.442Z,61.27
2022-07-27T00:49:00.402Z,61.07
2022-07-27T00:50:00.401Z,60.77
2022-07-27T00:51:00.382Z,60.64
2022-07-27T00:52:00.395Z,60.74
2022-07-27T00:53:00.355Z,60.94
2022-07-27T00:54:00.355Z,60.84
2022-07-27T00:55:00.336Z,60.84
2022-07-27T00:56:00.338Z,61.04
2022-07-27T00:57:00.318Z,61.17
2022-07-27T00:58:00.313Z,61.47
2022-07-27T00:59:00.300Z,61.47
2022-07-27T01:00:00.306Z,61.67
2022-07-27T01:01:00.268Z,61.77
2022-07-27T01:02:00.266Z,61.67
2022-07-27T01:03:07.806Z,62.1
2022-07-27T01:04:08.821Z,62.2
2022-07-27T01:05:07.800Z,62.1
2022-07-27T01:06:07.776Z,62.93
2022-07-27T01:07:07.779Z,63.23
2022-07-27T01:08:07.748Z,63.53
2022-07-27T01:09:07.739Z,63.73
2022-07-27T01:10:08.759Z,63.4
2022-07-27T01:11:07.717Z,63.07
2022-07-27T01:12:07.715Z,62.47
2022-07-27T01:13:00.140Z,62.47
2022-07-27T01:14:07.707Z,62.37
2022-07-27T01:15:07.678Z,62.47
2022-07-27T01:16:00.109Z,62.8
2022-07-27T01:17:00.101Z,63.4
2022-07-27T01:18:07.647Z,63.31
2022-07-27T01:19:00.080Z,63.7
2022-07-27T01:20:00.072Z,63.6
2022-07-27T01:21:00.064Z,63.5
2022-07-27T01:22:00.047Z,63.6
2022-07-27T01:23:07.601Z,64.11
2022-07-27T01:24:00.024Z,63.7
2022-07-27T01:25:00.015Z,63.6
2022-07-27T01:26:08.836Z,63.4
2022-07-27T01:26:59.992Z,63.4
2022-07-27T01:28:07.552Z,63.4
2022-07-27T01:28:59.978Z,63.43
2022-07-27T01:29:59.959Z,63.84
2022-07-27T01:30:59.946Z,64.47
2022-07-27T01:31:59.938Z,64.54
2022-07-27T01:33:07.495Z,64.24
2022-07-27T01:34:07.468Z,63.9
2022-07-27T01:35:07.470Z,63.4
2022-07-27T01:36:07.444Z,62.97
2022-07-27T01:37:07.436Z,62.77
2022-07-27T01:38:07.431Z,62.77
2022-07-27T01:39:08.463Z,62.47
2022-07-27T01:39:59.855Z,62.9
2022-07-27T01:40:59.843Z,63.64
2022-07-27T01:41:59.831Z,64.24
2022-07-27T01:42:59.821Z,64.57
2022-07-27T01:43:59.827Z,64.87
2022-07-27T01:44:59.810Z,64.43
2022-07-27T01:45:59.799Z,63.84
2022-07-27T01:46:59.776Z,63.93
2022-07-27T01:47:59.773Z,64.04
2022-07-27T01:48:59.771Z,64.14
2022-07-27T01:49:59.752Z,64.24
2022-07-27T01:50:59.730Z,64.24
2022-07-27T01:51:59.732Z,64.14
2022-07-27T01:53:06.312Z,64.24
2022-07-27T01:53:59.700Z,64.34
2022-07-27T01:54:59.691Z,64.43
2022-07-27T01:55:59.680Z,64.84
2022-07-27T01:56:59.673Z,64.84
2022-07-27T01:57:59.670Z,64.94
2022-07-27T01:58:59.671Z,65.14
2022-07-27T01:59:59.635Z,65.14
2022-07-27T02:00:59.626Z,65.04
2022-07-27T02:01:59.618Z,65.07
2022-07-27T02:02:59.607Z,65.34
2022-07-27T02:03:59.606Z,65.34
2022-07-27T02:04:59.591Z,65.14
2022-07-27T02:05:59.582Z,65.14
2022-07-27T02:06:59.565Z,65.04
2022-07-27T02:07:59.548Z,65.04
2022-07-27T02:08:59.548Z,65.04
2022-07-27T02:09:59.553Z,65.14
2022-07-27T02:10:59.516Z,65.14
2022-07-27T02:11:59.507Z,65.34
2022-07-27T02:12:59.513Z,65.34
2022-07-27T02:13:59.485Z,65.24
2022-07-27T02:14:59.477Z,65.14
2022-07-27T02:15:59.475Z,65.34
2022-07-27T02:16:59.472Z,65.14
2022-07-27T02:17:59.443Z,64.94
2022-07-27T02:18:59.438Z,65.14
2022-07-27T02:19:59.420Z,65.37
2022-07-27T02:20:59.411Z,65.14
2022-07-27T02:21:59.401Z,65.17
2022-07-27T02:22:59.391Z,65.04
2022-07-27T02:23:59.378Z,64.74
2022-07-27T02:24:59.363Z,64.94
2022-07-27T02:25:59.352Z,64.57
2022-07-27T02:26:59.349Z,64.77
2022-07-27T02:27:59.346Z,64.97
2022-07-27T02:28:59.324Z,64.97
2022-07-27T02:29:59.320Z,65.07
2022-07-27T02:30:59.308Z,65.37
2022-07-27T02:31:59.290Z,65.27
2022-07-27T02:32:59.284Z,65.37
2022-07-27T02:33:59.267Z,65.2
2022-07-27T02:34:59.256Z,65.73
2022-07-27T02:35:59.248Z,66.47
2022-07-27T02:36:59.232Z,67
2022-07-27T02:37:59.224Z,67.41
2022-07-27T02:38:59.215Z,67.94
2022-07-27T02:39:59.202Z,68.35
2022-07-27T02:40:59.191Z,68.35
2022-07-27T02:41:59.178Z,68.48
2022-07-27T02:42:59.172Z,68.78
2022-07-27T02:43:59.165Z,68.55
2022-07-27T02:44:59.155Z,68.55
2022-07-27T02:45:59.140Z,68.75
2022-07-27T02:46:59.131Z,69.12
2022-07-27T02:47:59.148Z,68.59
2022-07-27T02:48:59.104Z,67.85
2022-07-27T02:49:59.095Z,67.14
2022-07-27T02:50:59.081Z,66.74
2022-07-27T02:51:59.072Z,66.74
2022-07-27T02:52:59.062Z,66.97
2022-07-27T02:53:59.049Z,67.58
2022-07-27T02:54:59.034Z,67.35
2022-07-27T02:55:59.027Z,67.35
2022-07-27T02:56:59.019Z,66.44
2022-07-27T02:57:59.007Z,66.91
2022-07-27T02:58:59.002Z,66.61
2022-07-27T02:59:58.984Z,66.17
2022-07-27T03:00:58.974Z,65.97
2022-07-27T03:01:58.966Z,65.67
2022-07-27T03:02:58.944Z,65.47
2022-07-27T03:03:58.980Z,65.27
2022-07-27T03:04:58.926Z,65.17
2022-07-27T03:05:58.922Z,64.97
2022-07-27T03:06:58.906Z,65.17
2022-07-27T03:07:58.906Z,65.47
2022-07-27T03:08:58.886Z,65.47
2022-07-27T03:09:58.878Z,65.37
2022-07-27T03:10:58.860Z,65.91
2022-07-27T03:11:58.855Z,66.11
2022-07-27T03:12:58.853Z,66
2022-07-27T03:13:58.839Z,65.91
2022-07-27T03:14:58.826Z,65.91
2022-07-27T03:15:58.807Z,65.91
2022-07-27T03:16:58.814Z,66
2022-07-27T03:17:58.782Z,66.2
2022-07-27T03:18:58.783Z,66.64
2022-07-27T03:19:58.760Z,66.61
2022-07-27T03:20:58.754Z,66.31
2022-07-27T03:21:58.743Z,66.2
2022-07-27T03:22:58.733Z,66.41
2022-07-27T03:23:58.728Z,66.71
2022-07-27T03:24:58.712Z,66.61
2022-07-27T03:25:58.699Z,66.44
2022-07-27T03:26:58.703Z,67.24
2022-07-27T03:27:58.674Z,67.14
2022-07-27T03:28:58.683Z,67.14
2022-07-27T03:29:58.651Z,66.81
2022-07-27T03:30:58.646Z,66.51
2022-07-27T03:31:58.633Z,66.41
2022-07-27T03:32:58.628Z,66.31
2022-07-27T03:33:58.614Z,66.41
2022-07-27T03:34:58.600Z,66.31
2022-07-27T03:35:58.589Z,66.51
2022-07-27T03:36:58.589Z,66.41
2022-07-27T03:37:58.593Z,66.51
2022-07-27T03:38:58.555Z,66.38
2022-07-27T03:39:58.550Z,65.88
2022-07-27T03:40:58.533Z,65.97
2022-07-27T03:41:58.539Z,66.51
2022-07-27T03:42:58.525Z,66.51
2022-07-27T03:43:58.500Z,67.04
2022-07-27T03:44:58.491Z,67.58
2022-07-27T03:45:58.497Z,68.08
2022-07-27T03:46:58.468Z,68.59
2022-07-27T03:47:58.464Z,68.38
2022-07-27T03:48:58.445Z,68.91
2022-07-27T03:49:58.447Z,69.29
2022-07-27T03:50:58.427Z,68.68
2022-07-27T03:51:58.410Z,68.08
2022-07-27T03:52:58.399Z,68.18
2022-07-27T03:53:58.391Z,67.91
2022-07-27T03:54:58.402Z,68.41
2022-07-27T03:55:58.369Z,68.38
2022-07-27T03:56:58.362Z,68.28
2022-07-27T03:57:58.361Z,68.51
2022-07-27T03:58:58.338Z,68.62
2022-07-27T03:59:58.329Z,69.15
2022-07-27T04:00:58.318Z,69.05
2022-07-27T04:01:58.303Z,69.35
2022-07-27T04:02:58.292Z,69.25
2022-07-27T04:03:58.284Z,69.25
2022-07-27T04:04:58.293Z,69.25
2022-07-27T04:05:58.272Z,69.56
2022-07-27T04:06:58.251Z,70.06
2022-07-27T04:07:58.247Z,70.26
2022-07-27T04:08:58.225Z,69.65
2022-07-27T04:09:58.218Z,69.72
2022-07-27T04:10:58.210Z,69.22
2022-07-27T04:11:58.215Z,69.42
2022-07-27T04:12:58.184Z,70.06
2022-07-27T04:13:58.181Z,69.96
2022-07-27T04:14:58.160Z,69.32
2022-07-27T04:15:58.153Z,68.68
2022-07-27T04:16:58.157Z,68.38
2022-07-27T04:17:58.150Z,68.35
2022-07-27T04:18:58.122Z,68.05
2022-07-27T04:19:58.109Z,67.61
2022-07-27T04:20:58.106Z,67.51
2022-07-27T04:21:58.090Z,67.21
2022-07-27T04:22:58.084Z,66.91
2022-07-27T04:23:58.075Z,67.24
2022-07-27T04:24:58.065Z,67.55
2022-07-27T04:25:58.051Z,67.65
2022-07-27T04:26:58.040Z,67.51
2022-07-27T04:27:58.038Z,67.41
2022-07-27T04:28:58.026Z,67.21
2022-07-27T04:29:58.003Z,66.91
2022-07-27T04:30:57.989Z,66.81
2022-07-27T04:31:57.988Z,66.61
2022-07-27T04:32:57.982Z,66.81
2022-07-27T04:33:57.961Z,67.14
2022-07-27T04:34:58.899Z,67.44
2022-07-27T04:35:57.935Z,67.44
2022-07-27T04:36:57.926Z,67.98
2022-07-27T04:37:57.917Z,68.18
2022-07-27T04:38:57.906Z,68.48
2022-07-27T04:39:57.896Z,68.71
2022-07-27T04:40:57.911Z,68.82
2022-07-27T04:41:57.870Z,68.71
2022-07-27T04:42:57.869Z,68.51
2022-07-27T04:43:57.852Z,68.51
2022-07-27T04:44:57.894Z,68.62
2022-07-27T04:45:57.834Z,68.82
2022-07-27T04:46:57.822Z,68.62
2022-07-27T04:47:57.814Z,69.05
2022-07-27T04:48:57.792Z,69.35
2022-07-27T04:49:57.783Z,69.76
2022-07-27T04:50:57.780Z,69.72
2022-07-27T04:51:57.761Z,68.48
2022-07-27T04:52:57.766Z,68.62
2022-07-27T04:53:57.771Z,68.08
2022-07-27T04:54:57.729Z,67.88
2022-07-27T04:55:57.738Z,68.18
2022-07-27T04:56:57.716Z,67.88
2022-07-27T04:57:57.747Z,68.18
2022-07-27T04:58:57.686Z,68.18
2022-07-27T04:59:57.679Z,68.18
2022-07-27T05:00:57.669Z,68.28
2022-07-27T05:01:57.660Z,68.59
2022-07-27T05:02:57.646Z,68.82
2022-07-27T05:03:57.641Z,68.82
2022-07-27T05:04:57.625Z,69.15
2022-07-27T05:05:57.632Z,69.45
2022-07-27T05:06:57.614Z,69.56
2022-07-27T05:07:57.642Z,69.52
2022-07-27T05:08:57.579Z,69.65
2022-07-27T05:09:57.579Z,70.06
2022-07-27T05:10:57.582Z,69.76
2022-07-27T05:11:57.554Z,69.96
2022-07-27T05:12:57.543Z,70.06
2022-07-27T05:13:57.555Z,70.46
2022-07-27T05:14:57.534Z,70.16
2022-07-27T05:15:57.527Z,69.92
2022-07-27T05:16:57.514Z,69.52
2022-07-27T05:17:57.486Z,69.09
2022-07-27T05:18:57.482Z,68.88
2022-07-27T05:19:57.466Z,68.59
2022-07-27T05:20:57.454Z,68.48
2022-07-27T05:21:57.468Z,68.62
2022-07-27T05:22:57.432Z,69.22
2022-07-27T05:23:57.420Z,69.32
2022-07-27T05:24:57.415Z,68.78
2022-07-27T05:25:57.401Z,68.48
2022-07-27T05:26:57.390Z,68.25
2022-07-27T05:27:57.382Z,68.18
2022-07-27T05:28:57.377Z,68.18
2022-07-27T05:29:57.379Z,68.38
2022-07-27T05:30:57.352Z,68.48
2022-07-27T05:31:57.339Z,68.48
2022-07-27T05:32:57.334Z,68.59
2022-07-27T05:33:57.321Z,68.59
2022-07-27T05:34:57.321Z,68.68
2022-07-27T05:35:57.287Z,69.29
2022-07-27T05:36:57.299Z,68.88
2022-07-27T05:37:57.282Z,68.08
2022-07-27T05:38:57.262Z,68.78
2022-07-27T05:39:57.254Z,69.42
2022-07-27T05:40:57.231Z,70.16
2022-07-27T05:41:57.227Z,70.56
2022-07-27T05:42:57.235Z,70.76
2022-07-27T05:43:57.205Z,70.63
2022-07-27T05:44:57.200Z,69.89
2022-07-27T05:45:57.180Z,69.65
2022-07-27T05:46:57.187Z,69.09
2022-07-27T05:47:57.163Z,69.38
2022-07-27T05:48:57.147Z,69.38
2022-07-27T05:49:57.137Z,69.29
2022-07-27T05:50:57.131Z,69.25
2022-07-27T05:51:57.118Z,68.65
2022-07-27T05:52:57.106Z,68.55
2022-07-27T05:53:57.092Z,68.98
2022-07-27T05:54:57.123Z,68.78
2022-07-27T05:55:57.071Z,69.09
2022-07-27T05:56:57.065Z,69.09
2022-07-27T05:57:57.056Z,69.09
2022-07-27T05:58:57.043Z,68.98
2022-07-27T05:59:57.031Z,68.59
2022-07-27T06:00:57.018Z,68.48
2022-07-27T06:01:57.011Z,68.28
2022-07-27T06:02:56.999Z,67.88
2022-07-27T06:03:57.009Z,67.88
2022-07-27T06:04:57.015Z,67.88
2022-07-27T06:05:56.962Z,68.08
2022-07-27T06:06:56.949Z,67.94
2022-07-27T06:07:56.942Z,67.74
2022-07-27T06:08:56.945Z,66.94
2022-07-27T06:09:56.925Z,67.47
2022-07-27T06:10:56.915Z,68.18
2022-07-27T06:11:56.893Z,68.05
2022-07-27T06:12:56.888Z,67.21
2022-07-27T06:13:56.881Z,66.91
2022-07-27T06:14:56.877Z,66.74
2022-07-27T06:15:56.862Z,67.41
2022-07-27T06:16:56.848Z,68.11
2022-07-27T06:17:56.830Z,68.28
2022-07-27T06:18:56.847Z,67.98
2022-07-27T06:19:56.821Z,67.98
2022-07-27T06:20:56.814Z,68.21
2022-07-27T06:21:56.806Z,68.31
2022-07-27T06:22:56.774Z,69.02
2022-07-27T06:23:56.762Z,69.18
2022-07-27T06:24:56.776Z,68.65
2022-07-27T06:25:56.749Z,67.82
2022-07-27T06:26:56.740Z,67.11
2022-07-27T06:27:56.725Z,67.55
2022-07-27T06:28:56.721Z,67.51
2022-07-27T06:29:56.707Z,67.61
2022-07-27T06:30:56.687Z,67.55
2022-07-27T06:31:56.685Z,68.05
2022-07-27T06:32:56.678Z,67.94
2022-07-27T06:33:56.670Z,67.82
2022-07-27T06:34:56.652Z,67.41
2022-07-27T06:35:56.633Z,67.71
2022-07-27T06:36:56.654Z,67.41
2022-07-27T06:37:56.625Z,67.71
2022-07-27T06:38:56.614Z,67.61
2022-07-27T06:39:56.601Z,67.41
2022-07-27T06:40:56.585Z,66.67
2022-07-27T06:41:56.570Z,66.91
2022-07-27T06:42:56.561Z,67.55
2022-07-27T06:43:56.578Z,67.98
2022-07-27T06:44:56.539Z,68.65
2022-07-27T06:45:56.540Z,67.71
2022-07-27T06:46:56.537Z,66.88
2022-07-27T06:47:56.517Z,66.28
2022-07-27T06:48:56.511Z,66.21
2022-07-27T06:49:56.493Z,65.38
2022-07-27T06:50:56.481Z,64.84
2022-07-27T06:51:56.467Z,64.15
2022-07-27T06:52:56.461Z,64.12
2022-07-27T06:53:56.450Z,63.58
2022-07-27T06:54:56.446Z,62.88
2022-07-27T06:55:56.431Z,62.31
2022-07-27T06:56:56.417Z,62.61
2022-07-27T06:57:56.422Z,62.18
2022-07-27T06:58:56.392Z,61.75
2022-07-27T06:59:56.384Z,61.35
2022-07-27T07:00:56.410Z,61.35
2022-07-27T07:01:56.370Z,61.05
2022-07-27T07:02:56.354Z,60.95
2022-07-27T07:03:56.348Z,61.68
2022-07-27T07:04:56.335Z,61.78
2022-07-27T07:05:56.321Z,61.48
2022-07-27T07:06:56.314Z,61.58
2022-07-27T07:07:56.332Z,60.95
2022-07-27T07:08:56.303Z,60.42
2022-07-27T07:09:56.286Z,60.32
2022-07-27T07:10:56.263Z,60.12
2022-07-27T07:11:56.259Z,58.42
2022-07-27T07:12:56.259Z,58.32
2022-07-27T07:13:56.243Z,59.02
2022-07-27T07:14:56.230Z,59.42
2022-07-27T07:15:56.215Z,58.85
2022-07-27T07:16:56.209Z,58.75
2022-07-27T07:17:56.195Z,58.12
2022-07-27T07:18:56.184Z,57.92
2022-07-27T07:19:56.195Z,57.82
2022-07-27T07:20:56.183Z,56.99
2022-07-27T07:21:56.179Z,57.29
2022-07-27T07:22:56.166Z,57.14
2022-07-27T07:23:56.135Z,56.21
2022-07-27T07:24:56.168Z,54.91
2022-07-27T07:25:56.109Z,55.54
2022-07-27T07:26:56.100Z,55.71
2022-07-27T07:27:56.085Z,55.32
2022-07-27T07:28:56.093Z,56.84
2022-07-27T07:29:56.069Z,57.54
2022-07-27T07:30:56.052Z,57.93
2022-07-27T07:31:56.046Z,57.76
2022-07-27T07:32:56.041Z,57.57
2022-07-27T07:33:56.028Z,57.84
2022-07-27T07:34:56.028Z,58.39
2022-07-27T07:35:56.010Z,58.72
2022-07-27T07:36:56.002Z,59.15
2022-07-27T07:37:55.989Z,59.02
2022-07-27T07:38:55.969Z,59.68
2022-07-27T07:39:56.000Z,60.41
2022-07-27T07:40:55.957Z,60.61
2022-07-27T07:41:55.939Z,60.31
2022-07-27T07:42:55.934Z,60.48
2022-07-27T07:43:55.947Z,59.75
2022-07-27T07:44:55.914Z,57.72
2022-07-27T07:45:56.815Z,57.12
2022-07-27T07:46:55.912Z,57.39
2022-07-27T07:47:55.904Z,56.59
2022-07-27T07:48:55.868Z,55.09
2022-07-27T07:49:55.876Z,54.47
2022-07-27T07:50:55.851Z,53.84
2022-07-27T07:51:55.831Z,53.34
2022-07-27T07:52:55.849Z,53.02
2022-07-27T07:53:55.817Z,53.84
2022-07-27T07:54:55.810Z,57.02
2022-07-27T07:55:55.795Z,58.68
2022-07-27T07:56:55.896Z,59.61
2022-07-27T07:57:55.780Z,59.83
2022-07-27T07:58:55.759Z,60.14
2022-07-27T07:59:55.756Z,59.5
2022-07-27T08:00:55.747Z,59.03
2022-07-27T08:01:55.729Z,59.56
2022-07-27T08:02:56.318Z,59.36
2022-07-27T08:03:55.742Z,58.96
2022-07-27T08:04:55.698Z,58.33
2022-07-27T08:05:55.691Z,58.3
2022-07-27T08:06:55.682Z,57.35
2022-07-27T08:07:55.705Z,56.09
2022-07-27T08:08:55.677Z,55.14
2022-07-27T08:09:55.646Z,54.52
2022-07-27T08:10:55.643Z,53.39
2022-07-27T08:11:55.627Z,52.97
2022-07-27T08:12:55.624Z,53.36
2022-07-27T08:13:55.661Z,52.87
2022-07-27T08:14:55.595Z,54.02
2022-07-27T08:15:55.580Z,54.32
2022-07-27T08:16:55.581Z,54.52
2022-07-27T08:17:55.560Z,54.54
2022-07-27T08:18:55.569Z,54.22
2022-07-27T08:19:55.545Z,53.69
2022-07-27T08:20:56.315Z,53.06
2022-07-27T08:21:55.520Z,53.27
2022-07-27T08:22:55.503Z,52.67
2022-07-27T08:23:55.494Z,53.31
2022-07-27T08:24:55.485Z,54.44
2022-07-27T08:25:55.476Z,54.67
2022-07-27T08:26:55.466Z,54.77
2022-07-27T08:27:55.452Z,54.34
2022-07-27T08:28:55.469Z,53.61
2022-07-27T08:29:55.430Z,53.09
2022-07-27T08:30:55.420Z,51.65
2022-07-27T08:31:55.407Z,50.55
2022-07-27T08:32:55.397Z,48.61
2022-07-27T08:33:55.403Z,47.66
2022-07-27T08:34:55.380Z,48.53
2022-07-27T08:35:55.409Z,48.85
2022-07-27T08:36:55.351Z,49.1
2022-07-27T08:37:55.346Z,50
2022-07-27T08:38:55.367Z,49.45
2022-07-27T08:40:55.311Z,48.71
2022-07-27T08:41:55.337Z,48.28
2022-07-27T08:42:55.291Z,48.31
2022-07-27T08:43:55.293Z,48.38
2022-07-27T08:44:55.279Z,47.77
2022-07-27T08:45:55.257Z,47.09
2022-07-27T08:46:55.256Z,47.69
2022-07-27T08:47:55.246Z,47.79
2022-07-27T08:48:55.228Z,47.56
2022-07-27T08:49:55.262Z,47.13
2022-07-27T08:50:55.236Z,46.08
2022-07-27T08:51:55.211Z,44.15
2022-07-27T08:52:55.186Z,44.07
2022-07-27T08:53:55.180Z,45.78
2022-07-27T08:54:55.189Z,46.49
2022-07-27T08:55:55.158Z,45.97
2022-07-27T08:56:55.152Z,45.28
2022-07-27T08:57:55.142Z,43.19
2022-07-27T08:58:55.121Z,42.01
2022-07-27T08:59:55.136Z,40.52
2022-07-27T09:00:55.107Z,42.09
2022-07-27T09:01:55.107Z,41.55
2022-07-27T09:02:55.079Z,40.68
2022-07-27T09:03:55.078Z,39.85
2022-07-27T09:04:55.100Z,37.81
2022-07-27T09:05:55.058Z,37.94
2022-07-27T09:06:55.050Z,38.95
2022-07-27T09:07:55.103Z,39.25
2022-07-27T09:08:55.022Z,39.53
2022-07-27T09:09:55.015Z,39.21
2022-07-27T09:10:55.000Z,39.45
2022-07-27T09:11:55.003Z,40.96
2022-07-27T09:12:54.985Z,40.88
2022-07-27T09:13:54.970Z,41.58
2022-07-27T09:14:54.975Z,40.96
2022-07-27T09:15:54.953Z,41.77
2022-07-27T09:16:54.934Z,41.99
2022-07-27T09:17:54.958Z,42.93
2022-07-27T09:18:54.917Z,43.75
2022-07-27T09:19:54.909Z,44.07
2022-07-27T09:20:54.933Z,44.38
2022-07-27T09:21:54.893Z,45.21
2022-07-27T09:22:54.908Z,45.18
2022-07-27T09:23:54.862Z,45.18
2022-07-27T09:24:54.880Z,45.06
2022-07-27T09:25:54.851Z,45.1
2022-07-27T09:26:54.842Z,42.91
2022-07-27T09:27:54.824Z,42.17
2022-07-27T09:28:54.862Z,41.28
2022-07-27T09:29:54.805Z,41.85
2022-07-27T09:30:54.891Z,40.42
2022-07-27T09:31:54.786Z,40.2
2022-07-27T09:32:54.777Z,39.61
2022-07-27T09:33:54.761Z,39.59
2022-07-27T09:34:54.755Z,39.51
2022-07-27T09:35:54.751Z,39.5
2022-07-27T09:36:54.737Z,39.2
2022-07-27T09:37:54.721Z,40.15
2022-07-27T09:38:54.703Z,41.02
2022-07-27T09:39:54.693Z,42.13
2022-07-27T09:40:54.689Z,43.41
2022-07-27T09:41:54.700Z,44.74
2022-07-27T09:42:54.667Z,44.92
2022-07-27T09:43:54.650Z,44.48
2022-07-27T09:44:54.654Z,42.57
2022-07-27T09:45:54.633Z,41.53
2022-07-27T09:46:54.771Z,40.72
2022-07-27T09:47:54.622Z,39.89
2022-07-27T09:48:54.603Z,39.17
2022-07-27T09:49:54.596Z,39.09
2022-07-27T09:50:54.574Z,40.42
2022-07-27T09:51:54.571Z,40.92
2022-07-27T09:52:54.569Z,40.52
2022-07-27T09:53:54.553Z,40.6
2022-07-27T09:54:54.705Z,39.29
2022-07-27T09:55:54.548Z,38.27
2022-07-27T09:56:54.508Z,37.96
2022-07-27T09:57:54.501Z,37.74
2022-07-27T09:58:54.495Z,37.84
2022-07-27T09:59:54.478Z,37.72
2022-07-27T10:00:54.483Z,36.74
2022-07-27T10:01:54.456Z,35.33
2022-07-27T10:02:54.447Z,34.2
2022-07-27T10:03:54.440Z,33.15
2022-07-27T10:04:54.441Z,32.69
2022-07-27T10:05:54.431Z,33.91
2022-07-27T10:06:54.410Z,33.62
2022-07-27T10:07:54.410Z,34.39
2022-07-27T10:08:54.392Z,35.05
2022-07-27T10:09:54.377Z,37.43
2022-07-27T10:10:54.371Z,38.71
2022-07-27T10:11:54.352Z,38.88
2022-07-27T10:12:54.351Z,37.93
2022-07-27T10:13:54.332Z,37.45
2022-07-27T10:14:54.323Z,35.41
2022-07-27T10:15:54.319Z,35
2022-07-27T10:16:54.314Z,35.61
2022-07-27T10:17:54.287Z,35.71
2022-07-27T10:18:54.283Z,35.64
2022-07-27T10:19:54.268Z,36.85
2022-07-27T10:20:54.261Z,35.46
2022-07-27T10:21:54.308Z,34
2022-07-27T10:22:54.277Z,31.58
2022-07-27T10:23:54.232Z,31.17
2022-07-27T10:24:54.236Z,32.07
2022-07-27T10:25:54.208Z,32.38
2022-07-27T10:26:54.204Z,32.87
2022-07-27T10:27:54.183Z,34.23
2022-07-27T10:28:54.198Z,36.11
2022-07-27T10:29:54.184Z,38.07
2022-07-27T10:30:54.202Z,39.22
2022-07-27T10:31:54.152Z,39.89
2022-07-27T10:32:54.141Z,41.42
2022-07-27T10:33:54.118Z,42.23
2022-07-27T10:34:54.125Z,41.6
2022-07-27T10:35:54.111Z,41.08
2022-07-27T10:36:54.095Z,39.75
2022-07-27T10:37:54.090Z,39.23
2022-07-27T10:38:54.107Z,39.22
2022-07-27T10:39:54.058Z,39.1
2022-07-27T10:40:54.050Z,39.25
2022-07-27T10:41:54.035Z,39.98
2022-07-27T10:42:54.037Z,38.82
2022-07-27T10:43:54.015Z,37.46
2022-07-27T10:44:54.010Z,37.07
2022-07-27T10:45:54.032Z,37.89
2022-07-27T10:46:53.992Z,37.87
2022-07-27T10:47:53.980Z,37.28
2022-07-27T10:48:53.966Z,38.17
2022-07-27T10:49:53.957Z,38.42
2022-07-27T10:50:53.947Z,39.53
2022-07-27T10:51:53.940Z,39.71
2022-07-27T10:52:53.926Z,39.83
2022-07-27T10:53:53.920Z,39.91
2022-07-27T10:54:53.914Z,40.05
2022-07-27T10:55:53.903Z,40.88
2022-07-27T10:56:53.906Z,41.82
2022-07-27T10:57:53.896Z,42.93
2022-07-27T10:58:53.869Z,42.85
2022-07-27T10:59:53.859Z,43.59
2022-07-27T11:00:53.845Z,44.12
2022-07-27T11:01:53.849Z,45.04
2022-07-27T11:02:53.856Z,45.56
2022-07-27T11:03:53.814Z,45.56
2022-07-27T11:04:53.801Z,46.28
2022-07-27T11:05:53.780Z,46.78
2022-07-27T11:06:53.798Z,46.28
2022-07-27T11:07:53.774Z,46.46
2022-07-27T11:08:53.751Z,45.56
2022-07-27T11:09:53.764Z,45.36
2022-07-27T11:10:53.726Z,45.36
2022-07-27T11:11:53.720Z,45.26
2022-07-27T11:12:53.723Z,44.74
2022-07-27T11:13:53.699Z,44.18
2022-07-27T11:14:53.694Z,43.16
2022-07-27T11:15:53.679Z,43.16
2022-07-27T11:16:53.686Z,41.61
2022-07-27T11:17:53.663Z,40.26
2022-07-27T11:18:53.672Z,39.2
2022-07-27T11:19:53.631Z,38.13
2022-07-27T11:20:53.623Z,37.94
2022-07-27T11:21:53.618Z,37.82
2022-07-27T11:23:53.591Z,38.13
2022-07-27T11:24:53.581Z,38.94
2022-07-27T11:25:53.575Z,38.9
2022-07-27T11:26:53.569Z,38.25
2022-07-27T11:27:53.551Z,39.71
2022-07-27T11:28:53.541Z,40.12
2022-07-27T11:29:53.527Z,40.47
2022-07-27T11:30:53.518Z,41.63
2022-07-27T11:31:53.551Z,42.01
2022-07-27T11:32:53.566Z,41.6
2022-07-27T11:33:53.535Z,41.91
2022-07-27T11:34:53.508Z,42.72
2022-07-27T11:35:53.471Z,43.01
2022-07-27T11:36:53.468Z,42.57
2022-07-27T11:37:53.451Z,41.95
2022-07-27T11:38:53.461Z,41.53
2022-07-27T11:39:53.425Z,41.28
2022-07-27T11:40:53.411Z,41.58
2022-07-27T11:41:53.407Z,41.79
2022-07-27T11:42:53.398Z,41.77
2022-07-27T11:43:53.389Z,41.47
2022-07-27T11:44:53.374Z,41.14
2022-07-27T11:45:53.359Z,41.04
2022-07-27T11:46:53.355Z,40.92
2022-07-27T11:47:53.369Z,40.62
2022-07-27T11:48:53.329Z,40.7
2022-07-27T11:49:53.319Z,40.11
2022-07-27T11:50:53.333Z,40.31
2022-07-27T11:51:53.312Z,40.72
2022-07-27T11:52:53.286Z,40.5
2022-07-27T11:53:53.276Z,39.75
2022-07-27T11:54:53.264Z,38.59
2022-07-27T11:55:53.281Z,36.25
2022-07-27T11:56:53.249Z,35.72
2022-07-27T11:57:53.235Z,35.67
2022-07-27T11:58:53.223Z,33.82
2022-07-27T11:59:53.209Z,33.09
2022-07-27T12:00:53.203Z,32.27
2022-07-27T12:01:53.191Z,31.36
2022-07-27T12:02:53.185Z,31.18
2022-07-27T12:03:53.192Z,32.51
2022-07-27T12:04:53.201Z,32.46
2022-07-27T12:05:53.152Z,32.38
2022-07-27T12:06:53.146Z,32.28
2022-07-27T12:07:53.160Z,33
2022-07-27T12:08:53.118Z,33.54
2022-07-27T12:09:53.114Z,34.15
2022-07-27T12:10:53.133Z,34.06
2022-07-27T12:11:53.092Z,34.87
2022-07-27T12:12:53.074Z,36.11
2022-07-27T12:13:53.071Z,36.54
2022-07-27T12:14:53.063Z,37.56
2022-07-27T12:15:53.049Z,37.77
2022-07-27T12:16:53.037Z,38.7
2022-07-27T12:17:53.026Z,39.69
2022-07-27T12:18:53.015Z,40.41
2022-07-27T12:19:53.005Z,41.2
2022-07-27T12:20:53.004Z,41.83
2022-07-27T12:21:53.007Z,43.08
2022-07-27T12:22:52.992Z,43.3
2022-07-27T12:23:52.960Z,44.2
2022-07-27T12:24:52.973Z,44.1
2022-07-27T12:25:52.948Z,43.26
2022-07-27T12:26:53.032Z,43.9
2022-07-27T12:27:52.923Z,44.52
2022-07-27T12:28:52.938Z,44.4
2022-07-27T12:29:52.909Z,44.12
2022-07-27T12:30:52.894Z,44.42
2022-07-27T12:31:52.888Z,44.42
2022-07-27T12:32:52.872Z,44.59
2022-07-27T12:33:52.861Z,43.98
2022-07-27T12:34:52.848Z,43.88
2022-07-27T12:35:52.845Z,44.18
2022-07-27T12:36:52.832Z,43.88
2022-07-27T12:37:52.817Z,43.8
2022-07-27T12:38:52.805Z,44.66
2022-07-27T12:39:52.801Z,45.48
2022-07-27T12:40:52.786Z,45.67
2022-07-27T12:41:52.785Z,45.78
2022-07-27T12:42:52.761Z,45.9
2022-07-27T12:43:52.765Z,45.65
2022-07-27T12:44:52.768Z,44.32
2022-07-27T12:45:52.736Z,43.58
2022-07-27T12:46:52.718Z,43.06
2022-07-27T12:47:52.713Z,42.57
2022-07-27T12:48:52.706Z,42.55
2022-07-27T12:49:52.696Z,41.93
2022-07-27T12:50:52.683Z,41.93
2022-07-27T12:51:52.695Z,41.83
2022-07-27T12:52:52.659Z,41.81
2022-07-27T12:53:52.650Z,41.52
2022-07-27T12:54:52.640Z,41.61
2022-07-27T12:55:52.640Z,42.45
2022-07-27T12:56:52.617Z,43.38